Time;durP1;ratioP1;P1;durP2;ratioP2;P2;SDS_P1;SDS_P2;PMS_P1;PMS_P2;Temp;Humidity;BMP_temperature;BMP_pressure;BME280_temperature;BME280_humidity;BME280_pressure;Samples;Min_cycle;Max_cycle;Signal;HPM_P1;HPM_P2
2023/10/23 00:00:07;;;;;;;27.70;14.50;;;;;;;;;;4945442;28;20027;-70
2023/10/23 00:02:38;;;;;;;31.80;16.23;;;;;;;;;;4947138;29;20047;-70
2023/10/23 00:05:07;;;;;;;28.50;14.57;;;;;;;;;;4937285;28;20462;-69
2023/10/23 00:07:33;;;;;;;32.50;17.45;;;;;;;;;;4932744;29;20040;-68
2023/10/23 00:09:58;;;;;;;26.67;16.33;;;;;;;;;;4939533;29;20536;-68
2023/10/23 00:12:24;;;;;;;30.27;16.35;;;;;;;;;;4934350;29;20514;-69
2023/10/23 00:14:50;;;;;;;35.47;17.35;;;;;;;;;;4934215;29;20036;-69
2023/10/23 00:17:15;;;;;;;29.85;16.90;;;;;;;;;;4933457;29;20024;-69
2023/10/23 00:19:41;;;;;;;31.92;15.63;;;;;;;;;;4951824;29;20093;-69
2023/10/23 00:22:07;;;;;;;33.45;16.23;;;;;;;;;;4952306;29;20031;-69
2023/10/23 00:24:33;;;;;;;40.45;17.20;;;;;;;;;;4953440;28;20094;-70
2023/10/23 00:26:59;;;;;;;33.45;17.85;;;;;;;;;;4935310;29;20063;-69
2023/10/23 00:29:24;;;;;;;28.52;15.27;;;;;;;;;;4934349;29;20501;-68
2023/10/23 00:31:50;;;;;;;35.63;16.42;;;;;;;;;;4932635;29;20171;-68
2023/10/23 00:34:17;;;;;;;39.25;17.48;;;;;;;;;;4934927;29;20493;-69
2023/10/23 00:36:43;;;;;;;27.25;15.05;;;;;;;;;;4933028;29;20496;-68
2023/10/23 00:39:09;;;;;;;33.90;15.88;;;;;;;;;;4931700;29;20040;-68
2023/10/23 00:41:35;;;;;;;64.18;17.73;;;;;;;;;;4954086;28;20497;-68
2023/10/23 00:44:01;;;;;;;23.70;15.23;;;;;;;;;;4940561;28;20409;-69
2023/10/23 00:46:29;;;;;;;33.35;16.08;;;;;;;;;;4938707;29;20042;-69
2023/10/23 00:48:55;;;;;;;28.30;15.32;;;;;;;;;;4937973;29;20040;-69
2023/10/23 00:51:21;;;;;;;26.13;14.90;;;;;;;;;;4933896;28;20035;-68
2023/10/23 00:53:48;;;;;;;24.20;14.98;;;;;;;;;;4941731;28;20404;-68
2023/10/23 00:56:14;;;;;;;67.30;14.27;;;;;;;;;;4932214;29;20027;-69
2023/10/23 00:58:42;;;;;;;108.18;17.52;;;;;;;;;;4942086;29;20040;-69
2023/10/23 01:01:12;;;;;;;57.42;17.33;;;;;;;;;;4950098;29;20045;-69
2023/10/23 01:03:38;;;;;;;33.10;16.48;;;;;;;;;;4932579;29;20050;-68
2023/10/23 01:06:05;;;;;;;28.95;17.20;;;;;;;;;;4935848;29;20030;-69
2023/10/23 01:08:31;;;;;;;30.42;16.02;;;;;;;;;;4934247;29;20499;-69
2023/10/23 01:10:58;;;;;;;29.75;15.85;;;;;;;;;;4934441;29;20042;-69
2023/10/23 01:13:25;;;;;;;34.33;16.70;;;;;;;;;;4933108;29;20035;-69
2023/10/23 01:15:51;;;;;;;34.35;16.38;;;;;;;;;;4933184;29;20031;-69
2023/10/23 01:18:17;;;;;;;34.05;16.50;;;;;;;;;;4932362;29;20035;-69
2023/10/23 01:20:44;;;;;;;38.13;16.65;;;;;;;;;;4932331;29;20032;-70
2023/10/23 01:23:11;;;;;;;32.53;15.52;;;;;;;;;;4933746;29;20039;-69
2023/10/23 01:25:38;;;;;;;33.38;15.93;;;;;;;;;;4933065;29;20098;-69
2023/10/23 01:28:04;;;;;;;27.95;15.23;;;;;;;;;;4933859;29;20040;-69
2023/10/23 01:30:30;;;;;;;36.58;16.73;;;;;;;;;;4932585;29;20027;-69
2023/10/23 01:32:56;;;;;;;32.17;15.70;;;;;;;;;;4938766;29;20493;-69
2023/10/23 01:35:22;;;;;;;37.45;16.70;;;;;;;;;;4951718;29;20042;-68
2023/10/23 01:37:51;;;;;;;30.33;16.60;;;;;;;;;;4952202;29;20126;-69
2023/10/23 01:40:17;;;;;;;30.60;16.58;;;;;;;;;;4951151;29;20125;-69
2023/10/23 01:42:44;;;;;;;41.55;17.27;;;;;;;;;;4949225;28;20119;-69
2023/10/23 01:45:10;;;;;;;49.13;17.90;;;;;;;;;;4934428;29;20517;-69
2023/10/23 01:47:36;;;;;;;49.03;18.55;;;;;;;;;;4933981;29;20040;-69
2023/10/23 01:50:01;;;;;;;28.42;16.33;;;;;;;;;;4932849;29;20035;-70
2023/10/23 01:52:27;;;;;;;29.48;16.27;;;;;;;;;;4934179;29;20034;-69
2023/10/23 01:54:53;;;;;;;26.50;15.65;;;;;;;;;;4932857;29;20020;-69
2023/10/23 01:57:19;;;;;;;32.15;16.33;;;;;;;;;;4932685;29;20044;-69
2023/10/23 01:59:45;;;;;;;23.85;15.80;;;;;;;;;;4932959;29;20397;-69
2023/10/23 02:02:11;;;;;;;25.40;14.77;;;;;;;;;;4933240;29;20066;-69
2023/10/23 02:04:39;;;;;;;29.60;16.48;;;;;;;;;;4936357;29;20070;-69
2023/10/23 02:07:05;;;;;;;65.57;17.00;;;;;;;;;;4937596;29;20027;-68
2023/10/23 02:09:31;;;;;;;40.42;16.73;;;;;;;;;;4937788;29;20020;-69
2023/10/23 02:11:58;;;;;;;30.85;16.88;;;;;;;;;;4937793;29;20487;-69
2023/10/23 02:14:23;;;;;;;50.10;17.17;;;;;;;;;;4937461;29;20101;-69
2023/10/23 02:16:49;;;;;;;131.05;18.30;;;;;;;;;;4936096;29;20046;-69
2023/10/23 02:19:15;;;;;;;47.22;18.30;;;;;;;;;;4936102;29;20437;-70
2023/10/23 02:21:49;;;;;;;37.42;19.33;;;;;;;;;;4937575;29;20043;-69
2023/10/23 02:24:19;;;;;;;28.48;16.38;;;;;;;;;;4936246;29;20031;-69
2023/10/23 02:26:46;;;;;;;62.08;16.10;;;;;;;;;;4936220;29;20491;-68
2023/10/23 02:29:12;;;;;;;57.72;18.40;;;;;;;;;;4952143;29;20220;-70
2023/10/23 02:31:38;;;;;;;57.95;17.98;;;;;;;;;;4937314;29;20469;-69
2023/10/23 02:34:05;;;;;;;66.63;19.35;;;;;;;;;;4935962;29;20024;-70
2023/10/23 02:36:31;;;;;;;89.38;22.00;;;;;;;;;;4937530;29;20028;-69
2023/10/23 02:38:57;;;;;;;55.22;21.17;;;;;;;;;;4936058;29;20105;-69
2023/10/23 02:41:23;;;;;;;60.85;19.83;;;;;;;;;;4936069;29;20126;-68
2023/10/23 02:43:52;;;;;;;93.75;23.17;;;;;;;;;;4935776;29;20119;-69
2023/10/23 02:46:17;;;;;;;50.03;18.92;;;;;;;;;;4936989;29;20035;-69
2023/10/23 02:48:43;;;;;;;41.30;18.33;;;;;;;;;;4936924;29;20433;-69
2023/10/23 02:51:09;;;;;;;76.65;22.77;;;;;;;;;;4935521;29;20062;-70
2023/10/23 02:53:35;;;;;;;38.92;18.52;;;;;;;;;;4935642;29;20386;-70
2023/10/23 02:56:00;;;;;;;53.33;17.65;;;;;;;;;;4937040;29;20540;-69
2023/10/23 02:58:27;;;;;;;46.38;17.48;;;;;;;;;;4936568;29;20078;-70
2023/10/23 03:00:53;;;;;;;43.20;17.60;;;;;;;;;;4935494;29;20140;-69
2023/10/23 03:03:18;;;;;;;31.27;16.65;;;;;;;;;;4935297;29;20637;-70
2023/10/23 03:05:44;;;;;;;28.42;15.65;;;;;;;;;;4936487;29;20050;-70
2023/10/23 03:08:10;;;;;;;27.05;15.25;;;;;;;;;;4936655;29;20102;-68
2023/10/23 03:10:36;;;;;;;27.30;16.58;;;;;;;;;;4935404;29;20043;-69
2023/10/23 03:13:02;;;;;;;26.38;15.98;;;;;;;;;;4935429;29;20177;-68
2023/10/23 03:15:29;;;;;;;26.35;16.60;;;;;;;;;;4935467;29;20107;-68
2023/10/23 03:17:54;;;;;;;25.38;15.25;;;;;;;;;;4935796;29;20045;-70
2023/10/23 03:20:20;;;;;;;30.25;15.50;;;;;;;;;;4938761;29;20489;-70
2023/10/23 03:22:46;;;;;;;32.17;16.58;;;;;;;;;;4934913;29;20466;-70
2023/10/23 03:25:12;;;;;;;25.13;15.68;;;;;;;;;;4933172;29;20254;-68
2023/10/23 03:27:37;;;;;;;39.75;16.55;;;;;;;;;;4943607;29;20135;-69
2023/10/23 03:30:04;;;;;;;76.75;16.30;;;;;;;;;;4954163;29;20074;-68
2023/10/23 03:32:29;;;;;;;43.35;17.65;;;;;;;;;;4953855;29;20046;-68
2023/10/23 03:34:57;;;;;;;44.65;17.90;;;;;;;;;;4953635;29;20031;-69
2023/10/23 03:37:23;;;;;;;51.33;17.00;;;;;;;;;;4954763;28;20019;-69
2023/10/23 03:39:49;;;;;;;46.15;17.83;;;;;;;;;;4937577;29;20038;-69
2023/10/23 03:42:16;;;;;;;32.88;17.58;;;;;;;;;;4935731;29;20051;-69
2023/10/23 03:44:43;;;;;;;29.70;16.90;;;;;;;;;;4935547;29;20038;-69
2023/10/23 03:47:08;;;;;;;31.42;16.08;;;;;;;;;;4935597;29;20032;-69
2023/10/23 03:49:34;;;;;;;30.65;16.42;;;;;;;;;;4934335;29;20043;-69
2023/10/23 03:51:59;;;;;;;25.15;15.38;;;;;;;;;;4933596;29;20039;-69
2023/10/23 03:54:25;;;;;;;23.88;15.90;;;;;;;;;;4935201;29;20046;-69
2023/10/23 03:56:51;;;;;;;22.25;13.50;;;;;;;;;;4934116;29;20027;-70
2023/10/23 03:59:17;;;;;;;24.98;15.52;;;;;;;;;;4935359;29;20498;-70
2023/10/23 04:01:42;;;;;;;28.05;14.98;;;;;;;;;;4935027;29;20027;-69
2023/10/23 04:04:08;;;;;;;26.30;14.98;;;;;;;;;;4935303;29;20110;-70
2023/10/23 04:06:34;;;;;;;25.38;14.30;;;;;;;;;;4934880;29;20072;-69
2023/10/23 04:09:00;;;;;;;26.05;15.07;;;;;;;;;;4935077;29;20046;-69
2023/10/23 04:11:26;;;;;;;25.80;16.13;;;;;;;;;;4933687;29;20394;-69
2023/10/23 04:13:52;;;;;;;28.05;15.63;;;;;;;;;;4935112;29;20043;-69
2023/10/23 04:16:17;;;;;;;24.17;14.40;;;;;;;;;;4934837;29;20023;-69
2023/10/23 04:18:44;;;;;;;23.92;13.52;;;;;;;;;;4934317;29;20083;-69
2023/10/23 04:21:12;;;;;;;21.05;13.45;;;;;;;;;;4934785;28;20394;-69
2023/10/23 04:23:39;;;;;;;19.27;12.93;;;;;;;;;;4936569;29;20409;-70
2023/10/23 04:26:05;;;;;;;30.73;14.65;;;;;;;;;;4934318;29;20046;-68
2023/10/23 04:28:33;;;;;;;23.40;16.05;;;;;;;;;;4942327;29;20488;-70
2023/10/23 04:30:59;;;;;;;39.35;16.73;;;;;;;;;;4939496;29;20030;-69
2023/10/23 04:33:25;;;;;;;25.88;15.15;;;;;;;;;;4953760;29;20039;-69
2023/10/23 04:35:55;;;;;;;22.02;13.10;;;;;;;;;;4953630;28;20027;-70
2023/10/23 04:38:21;;;;;;;28.52;15.15;;;;;;;;;;4953522;28;20114;-70
2023/10/23 04:40:47;;;;;;;25.90;14.48;;;;;;;;;;4953699;28;20094;-69
2023/10/23 04:43:13;;;;;;;22.88;14.73;;;;;;;;;;4953398;28;20098;-70
2023/10/23 04:45:39;;;;;;;24.63;13.40;;;;;;;;;;4953200;28;20464;-68
2023/10/23 04:48:05;;;;;;;21.23;13.55;;;;;;;;;;4953341;28;20043;-70
2023/10/23 04:50:32;;;;;;;24.67;13.45;;;;;;;;;;4953025;28;20031;-69
2023/10/23 04:52:59;;;;;;;31.67;14.35;;;;;;;;;;4952733;28;20370;-69
2023/10/23 04:55:35;;;;;;;24.08;15.38;;;;;;;;;;4952912;28;20023;-69
2023/10/23 04:58:01;;;;;;;21.95;13.55;;;;;;;;;;4936173;28;20066;-69
2023/10/23 05:00:28;;;;;;;29.17;14.52;;;;;;;;;;4933283;29;20357;-70
2023/10/23 05:02:54;;;;;;;22.00;14.00;;;;;;;;;;4945542;29;20031;-69
2023/10/23 05:05:20;;;;;;;29.08;13.95;;;;;;;;;;4943214;28;20130;-69
2023/10/23 05:07:46;;;;;;;25.25;14.15;;;;;;;;;;4932971;29;20114;-69
2023/10/23 05:10:12;;;;;;;29.95;14.98;;;;;;;;;;4933147;29;20034;-70
2023/10/23 05:12:38;;;;;;;17.90;12.18;;;;;;;;;;4933356;29;20122;-69
2023/10/23 05:15:05;;;;;;;27.23;13.07;;;;;;;;;;4933164;29;20142;-69
2023/10/23 05:17:31;;;;;;;18.15;11.15;;;;;;;;;;4933256;29;20031;-69
2023/10/23 05:19:57;;;;;;;18.65;11.07;;;;;;;;;;4933604;29;20038;-69
2023/10/23 05:22:24;;;;;;;16.63;11.27;;;;;;;;;;4933249;29;20036;-69
2023/10/23 05:24:50;;;;;;;25.73;12.10;;;;;;;;;;4933282;29;20031;-69
2023/10/23 05:27:17;;;;;;;20.02;12.63;;;;;;;;;;4932462;29;20482;-70
2023/10/23 05:29:43;;;;;;;19.52;11.45;;;;;;;;;;4933075;28;20027;-69
2023/10/23 05:32:09;;;;;;;24.13;12.70;;;;;;;;;;4933105;29;20035;-68
2023/10/23 05:34:35;;;;;;;17.80;11.07;;;;;;;;;;4933317;29;20027;-69
2023/10/23 05:37:02;;;;;;;17.05;11.25;;;;;;;;;;4933490;29;20058;-69
2023/10/23 05:39:28;;;;;;;20.38;11.32;;;;;;;;;;4935083;29;20016;-69
2023/10/23 05:41:54;;;;;;;19.90;11.75;;;;;;;;;;4944989;29;20430;-69
2023/10/23 05:44:20;;;;;;;17.42;11.32;;;;;;;;;;4937461;28;20111;-68
2023/10/23 05:46:45;;;;;;;16.30;10.32;;;;;;;;;;4929019;29;20032;-70
2023/10/23 05:49:11;;;;;;;17.35;10.00;;;;;;;;;;4937329;28;20036;-70
2023/10/23 05:51:37;;;;;;;26.05;11.13;;;;;;;;;;4938209;29;20075;-71
2023/10/23 05:54:02;;;;;;;19.67;10.80;;;;;;;;;;4947148;29;20035;-70
2023/10/23 05:56:29;;;;;;;23.70;10.32;;;;;;;;;;4956067;28;20054;-70
2023/10/23 05:58:55;;;;;;;20.50;10.27;;;;;;;;;;4955765;28;20070;-70
2023/10/23 06:01:21;;;;;;;15.57;8.88;;;;;;;;;;4955831;28;20396;-70
2023/10/23 06:03:46;;;;;;;22.98;10.90;;;;;;;;;;4938323;28;20112;-70
2023/10/23 06:06:12;;;;;;;21.83;8.65;;;;;;;;;;4940113;29;20516;-70
2023/10/23 06:08:39;;;;;;;17.90;8.40;;;;;;;;;;4956004;28;20283;-70
2023/10/23 06:11:08;;;;;;;22.25;9.07;;;;;;;;;;4956231;28;20031;-70
2023/10/23 06:13:34;;;;;;;20.92;8.13;;;;;;;;;;4956218;29;20046;-70
2023/10/23 06:16:07;;;;;;;18.02;8.43;;;;;;;;;;4952385;28;20070;-70
2023/10/23 06:18:34;;;;;;;17.20;8.35;;;;;;;;;;4945251;29;20035;-70
2023/10/23 06:21:03;;;;;;;20.92;8.07;;;;;;;;;;4956301;28;20031;-69
2023/10/23 06:23:39;;;;;;;11.98;7.50;;;;;;;;;;4955987;28;20102;-69
2023/10/23 06:26:08;;;;;;;22.77;8.27;;;;;;;;;;4955724;28;20457;-69
2023/10/23 06:28:35;;;;;;;19.42;7.75;;;;;;;;;;4939720;28;20397;-69
2023/10/23 06:31:08;;;;;;;21.13;7.45;;;;;;;;;;4919907;29;20456;-69
2023/10/23 06:33:35;;;;;;;;;;;;;;;;;;4937759;29;20035;-70
2023/10/23 06:36:01;;;;;;;17.65;7.78;;;;;;;;;;4936566;29;19938;-68
2023/10/23 06:38:27;;;;;;;19.23;7.88;;;;;;;;;;4955830;29;20208;-68
2023/10/23 06:40:52;;;;;;;15.07;7.68;;;;;;;;;;4955258;28;20392;-67
2023/10/23 06:43:18;;;;;;;14.30;9.23;;;;;;;;;;4955237;29;20042;-67
2023/10/23 06:45:44;;;;;;;19.58;9.90;;;;;;;;;;4955379;28;20484;-67
2023/10/23 06:48:10;;;;;;;31.00;13.10;;;;;;;;;;4955072;28;20039;-70
2023/10/23 06:50:36;;;;;;;40.05;20.13;;;;;;;;;;4954892;28;20031;-68
2023/10/23 06:53:02;;;;;;;47.72;21.00;;;;;;;;;;4955705;28;20130;-69
2023/10/23 06:55:28;;;;;;;43.70;18.67;;;;;;;;;;4943017;29;20019;-69
2023/10/23 06:57:54;;;;;;;47.42;20.55;;;;;;;;;;4935447;29;20039;-67
2023/10/23 07:00:21;;;;;;;46.42;20.60;;;;;;;;;;4935921;28;20611;-68
2023/10/23 07:02:49;;;;;;;39.08;18.83;;;;;;;;;;4936258;29;20146;-68
2023/10/23 07:05:14;;;;;;;33.92;17.23;;;;;;;;;;4941556;28;20035;-67
2023/10/23 07:07:40;;;;;;;41.67;18.92;;;;;;;;;;4936038;29;20051;-69
2023/10/23 07:10:06;;;;;;;38.05;18.77;;;;;;;;;;4936039;28;20015;-69
2023/10/23 07:12:32;;;;;;;40.10;21.33;;;;;;;;;;4935792;29;20047;-69
2023/10/23 07:14:58;;;;;;;36.83;19.23;;;;;;;;;;4935831;28;20087;-69
2023/10/23 07:17:24;;;;;;;34.38;17.40;;;;;;;;;;4935759;29;20514;-69
2023/10/23 07:19:51;;;;;;;39.75;19.35;;;;;;;;;;4935644;28;20044;-68
2023/10/23 07:22:17;;;;;;;35.67;17.80;;;;;;;;;;4935922;29;20036;-69
2023/10/23 07:24:42;;;;;;;36.35;16.90;;;;;;;;;;4942186;29;20047;-68
2023/10/23 07:27:14;;;;;;;31.58;16.77;;;;;;;;;;4935185;29;20106;-70
2023/10/23 07:29:42;;;;;;;38.67;17.77;;;;;;;;;;4934093;29;20122;-68
2023/10/23 07:32:07;;;;;;;28.33;15.35;;;;;;;;;;4935361;29;20110;-69
2023/10/23 07:34:33;;;;;;;33.63;16.45;;;;;;;;;;4935386;29;20488;-68
2023/10/23 07:36:59;;;;;;;26.17;15.13;;;;;;;;;;4934993;29;20031;-69
2023/10/23 07:39:25;;;;;;;29.02;16.08;;;;;;;;;;4935871;29;20039;-68
2023/10/23 07:41:50;;;;;;;29.40;16.02;;;;;;;;;;4945474;29;20027;-69
2023/10/23 07:44:16;;;;;;;33.28;16.60;;;;;;;;;;4954088;29;20027;-69
2023/10/23 07:46:43;;;;;;;25.30;15.32;;;;;;;;;;4953943;29;20058;-69
2023/10/23 07:49:10;;;;;;;32.17;15.15;;;;;;;;;;4954261;28;20030;-68
2023/10/23 07:51:35;;;;;;;24.73;14.50;;;;;;;;;;4954232;28;20038;-69
2023/10/23 07:54:01;;;;;;;21.10;13.48;;;;;;;;;;4954128;28;20035;-69
2023/10/23 07:56:26;;;;;;;24.42;14.50;;;;;;;;;;4953812;29;20031;-69
2023/10/23 07:58:55;;;;;;;22.08;14.18;;;;;;;;;;4952755;28;20114;-67
2023/10/23 08:01:21;;;;;;;29.60;16.58;;;;;;;;;;4934440;29;20031;-70
2023/10/23 08:03:47;;;;;;;23.85;15.00;;;;;;;;;;4934914;29;20492;-68
2023/10/23 08:06:12;;;;;;;29.23;15.27;;;;;;;;;;4935188;29;20178;-69
2023/10/23 08:08:39;;;;;;;26.20;14.50;;;;;;;;;;4934722;29;20069;-71
2023/10/23 08:11:10;;;;;;;33.13;17.08;;;;;;;;;;4938344;29;20039;-68
2023/10/23 08:13:36;;;;;;;27.52;15.77;;;;;;;;;;4934904;29;20040;-68
2023/10/23 08:16:05;;;;;;;28.50;16.15;;;;;;;;;;4934752;29;20035;-67
2023/10/23 08:18:32;;;;;;;36.38;19.27;;;;;;;;;;4934910;29;20260;-67
2023/10/23 08:20:57;;;;;;;28.63;15.27;;;;;;;;;;4935324;29;20110;-68
2023/10/23 08:23:23;;;;;;;35.00;16.15;;;;;;;;;;4934187;29;20513;-67
2023/10/23 08:25:49;;;;;;;24.63;14.63;;;;;;;;;;4934735;29;20047;-67
2023/10/23 08:28:15;;;;;;;25.58;14.75;;;;;;;;;;4934158;29;20516;-69
2023/10/23 08:30:41;;;;;;;27.50;16.35;;;;;;;;;;4934377;29;20076;-69
2023/10/23 08:33:07;;;;;;;25.05;14.98;;;;;;;;;;4934473;29;20067;-68
2023/10/23 08:35:32;;;;;;;28.55;14.95;;;;;;;;;;4934203;29;20079;-68
2023/10/23 08:37:58;;;;;;;22.83;14.45;;;;;;;;;;4933932;29;20032;-70
2023/10/23 08:40:24;;;;;;;25.63;13.77;;;;;;;;;;4934175;29;20469;-69
2023/10/23 08:42:50;;;;;;;33.80;15.60;;;;;;;;;;4941038;29;20043;-69
2023/10/23 08:45:16;;;;;;;26.60;16.05;;;;;;;;;;4953309;29;20038;-68
2023/10/23 08:47:43;;;;;;;25.88;15.18;;;;;;;;;;4952673;28;20063;-70
2023/10/23 08:50:09;;;;;;;26.63;15.00;;;;;;;;;;4952221;28;20442;-69
2023/10/23 08:52:46;;;;;;;24.25;14.82;;;;;;;;;;4952797;29;20050;-71
2023/10/23 08:55:14;;;;;;;23.38;14.82;;;;;;;;;;4953667;28;20035;-69
2023/10/23 08:57:52;;;;;;;29.25;15.90;;;;;;;;;;4952783;28;20082;-69
2023/10/23 09:00:22;;;;;;;31.02;15.63;;;;;;;;;;4953243;28;20030;-69
2023/10/23 09:02:49;;;;;;;26.27;14.00;;;;;;;;;;4952912;28;20042;-69
2023/10/23 09:05:14;;;;;;;26.63;14.25;;;;;;;;;;4951372;29;20039;-68
2023/10/23 09:07:40;;;;;;;25.58;12.98;;;;;;;;;;4952892;28;20063;-68
2023/10/23 09:10:06;;;;;;;23.75;13.73;;;;;;;;;;4952565;28;20394;-68
2023/10/23 09:12:34;;;;;;;26.63;15.90;;;;;;;;;;4952413;28;20035;-69
2023/10/23 09:15:18;;;;;;;24.50;14.05;;;;;;;;;;4948794;28;20044;-69
2023/10/23 09:17:44;;;;;;;24.92;14.00;;;;;;;;;;4933588;29;20119;-70
2023/10/23 09:20:28;;;;;;;25.67;13.75;;;;;;;;;;4933762;29;20453;-69
2023/10/23 09:22:54;;;;;;;23.40;13.70;;;;;;;;;;4934165;29;20098;-70
2023/10/23 09:25:24;;;;;;;25.35;13.98;;;;;;;;;;4933161;29;20031;-70
2023/10/23 09:27:51;;;;;;;26.67;13.82;;;;;;;;;;4934892;29;20032;-70
2023/10/23 09:30:23;;;;;;;27.17;13.10;;;;;;;;;;4940540;28;20446;-69
2023/10/23 09:32:53;;;;;;;23.10;13.40;;;;;;;;;;4932287;29;20047;-69
2023/10/23 09:35:22;;;;;;;25.58;13.35;;;;;;;;;;4933438;29;20134;-69
2023/10/23 09:37:47;;;;;;;23.42;14.25;;;;;;;;;;4943256;29;20452;-70
2023/10/23 09:40:14;;;;;;;22.88;13.80;;;;;;;;;;4952807;28;20067;-69
2023/10/23 09:42:40;;;;;;;24.50;12.98;;;;;;;;;;4951995;28;20035;-70
2023/10/23 09:45:07;;;;;;;22.98;12.57;;;;;;;;;;4952330;28;20078;-69
2023/10/23 09:47:35;;;;;;;23.13;13.48;;;;;;;;;;4950358;28;20362;-69
2023/10/23 09:50:03;;;;;;;22.77;12.20;;;;;;;;;;4948880;29;20041;-69
2023/10/23 09:52:34;;;;;;;30.40;12.93;;;;;;;;;;4952409;28;20020;-68
2023/10/23 09:55:04;;;;;;;25.25;13.25;;;;;;;;;;4952130;28;20035;-71
2023/10/23 09:57:38;;;;;;;26.75;12.55;;;;;;;;;;4952035;28;20055;-69
2023/10/23 10:00:13;;;;;;;23.23;12.82;;;;;;;;;;4952123;29;20039;-70
2023/10/23 10:02:48;;;;;;;24.83;13.15;;;;;;;;;;4953677;28;20131;-69
2023/10/23 10:05:21;;;;;;;28.10;12.80;;;;;;;;;;4952094;29;20051;-70
2023/10/23 10:08:02;;;;;;;27.80;11.75;;;;;;;;;;4951976;28;20481;-70
2023/10/23 10:10:30;;;;;;;26.67;13.13;;;;;;;;;;4952637;29;20031;-70
2023/10/23 10:12:56;;;;;;;27.80;11.70;;;;;;;;;;4950766;29;20023;-69
2023/10/23 10:15:23;;;;;;;23.88;13.20;;;;;;;;;;4940120;29;20032;-69
2023/10/23 10:17:49;;;;;;;28.00;11.85;;;;;;;;;;4935012;29;20019;-69
2023/10/23 10:20:20;;;;;;;27.55;11.02;;;;;;;;;;4949669;29;20039;-69
2023/10/23 10:22:46;;;;;;;27.70;12.25;;;;;;;;;;4931952;29;20038;-69
2023/10/23 10:25:12;;;;;;;21.08;12.45;;;;;;;;;;4932530;29;20035;-69
2023/10/23 10:27:39;;;;;;;20.83;11.77;;;;;;;;;;4934694;29;20126;-69
2023/10/23 10:30:06;;;;;;;20.10;11.40;;;;;;;;;;4935041;29;20075;-69
2023/10/23 10:32:33;;;;;;;22.75;11.07;;;;;;;;;;4935792;29;20492;-69
2023/10/23 10:35:03;;;;;;;21.70;11.90;;;;;;;;;;4935275;29;20066;-70
2023/10/23 10:37:31;;;;;;;20.73;11.98;;;;;;;;;;4936064;29;20023;-70
2023/10/23 10:39:56;;;;;;;22.00;12.18;;;;;;;;;;4936324;29;20133;-69
2023/10/23 10:42:23;;;;;;;22.95;11.90;;;;;;;;;;4936477;29;20122;-71
2023/10/23 10:44:53;;;;;;;25.00;12.60;;;;;;;;;;4936778;29;20598;-69
2023/10/23 10:47:39;;;;;;;25.20;11.35;;;;;;;;;;4936296;29;20038;-68
2023/10/23 10:50:05;;;;;;;24.75;11.57;;;;;;;;;;4936131;29;20048;-68
2023/10/23 10:52:35;;;;;;;23.45;11.00;;;;;;;;;;4936316;29;20397;-67
2023/10/23 10:55:04;;;;;;;24.30;10.63;;;;;;;;;;4936391;29;20063;-67
2023/10/23 10:57:29;;;;;;;21.60;10.32;;;;;;;;;;4936100;29;20373;-68
2023/10/23 11:00:00;;;;;;;20.42;10.27;;;;;;;;;;4936120;29;20045;-69
2023/10/23 11:02:26;;;;;;;23.90;10.60;;;;;;;;;;4935819;29;20024;-68
2023/10/23 11:04:52;;;;;;;14.80;9.27;;;;;;;;;;4935572;29;20086;-69
2023/10/23 11:07:25;;;;;;;22.15;9.20;;;;;;;;;;4935619;29;20040;-69
2023/10/23 11:09:52;;;;;;;17.25;8.60;;;;;;;;;;4935962;29;20047;-69
2023/10/23 11:12:18;;;;;;;20.17;8.40;;;;;;;;;;4935582;29;20548;-69
2023/10/23 11:14:46;;;;;;;31.60;10.95;;;;;;;;;;4935776;29;20048;-68
2023/10/23 11:17:12;;;;;;;18.58;8.52;;;;;;;;;;4935608;29;20482;-67
2023/10/23 11:19:41;;;;;;;15.85;7.28;;;;;;;;;;4935039;29;20051;-69
2023/10/23 11:22:15;;;;;;;13.98;6.95;;;;;;;;;;4939285;29;20086;-68
2023/10/23 11:24:41;;;;;;;15.32;6.55;;;;;;;;;;4940683;29;20039;-71
2023/10/23 11:27:08;;;;;;;17.83;7.18;;;;;;;;;;4935775;29;20028;-68
2023/10/23 11:29:44;;;;;;;15.68;7.10;;;;;;;;;;4939066;29;20043;-68
2023/10/23 11:32:15;;;;;;;17.55;6.65;;;;;;;;;;4944616;29;20127;-69
2023/10/23 11:34:41;;;;;;;18.35;6.65;;;;;;;;;;4935353;29;20051;-70
2023/10/23 11:37:09;;;;;;;24.05;7.95;;;;;;;;;;4942054;29;20461;-70
2023/10/23 11:39:36;;;;;;;13.90;6.65;;;;;;;;;;4948442;28;20031;-70
2023/10/23 11:42:03;;;;;;;21.75;8.00;;;;;;;;;;4943022;29;20055;-71
2023/10/23 11:44:31;;;;;;;13.27;7.22;;;;;;;;;;4941840;29;20462;-69
2023/10/23 11:46:58;;;;;;;14.70;6.88;;;;;;;;;;4935170;29;20066;-68
2023/10/23 11:49:24;;;;;;;14.70;6.25;;;;;;;;;;4934917;29;20035;-69
2023/10/23 11:51:55;;;;;;;16.90;5.90;;;;;;;;;;4945939;29;20031;-70
2023/10/23 11:54:22;;;;;;;12.15;5.55;;;;;;;;;;4953965;28;20046;-70
2023/10/23 11:56:48;;;;;;;14.20;5.82;;;;;;;;;;4953779;28;20058;-68
2023/10/23 11:59:17;;;;;;;14.23;5.70;;;;;;;;;;4954312;29;20055;-69
2023/10/23 12:01:44;;;;;;;16.73;6.47;;;;;;;;;;4941767;28;20107;-68
2023/10/23 12:04:10;;;;;;;18.95;6.95;;;;;;;;;;4941325;29;20079;-68
2023/10/23 12:06:37;;;;;;;11.98;6.68;;;;;;;;;;4942928;28;20418;-70
2023/10/23 12:09:04;;;;;;;13.75;6.55;;;;;;;;;;4934996;29;20042;-70
2023/10/23 12:11:31;;;;;;;16.95;6.32;;;;;;;;;;4937684;29;20028;-70
2023/10/23 12:13:59;;;;;;;16.92;6.38;;;;;;;;;;4952362;29;20035;-70
2023/10/23 12:16:28;;;;;;;14.05;6.03;;;;;;;;;;4948723;28;20031;-71
2023/10/23 12:18:54;;;;;;;17.60;6.20;;;;;;;;;;4934844;29;20039;-70
2023/10/23 12:21:20;;;;;;;16.85;5.68;;;;;;;;;;4935165;29;20042;-69
2023/10/23 12:23:46;;;;;;;15.43;6.65;;;;;;;;;;4934985;29;20600;-69
2023/10/23 12:26:12;;;;;;;16.30;6.50;;;;;;;;;;4934732;29;20020;-70
2023/10/23 12:28:39;;;;;;;11.93;5.38;;;;;;;;;;4943870;29;20054;-70
2023/10/23 12:31:05;;;;;;;22.80;6.57;;;;;;;;;;4934962;29;20050;-69
2023/10/23 12:33:32;;;;;;;14.93;5.50;;;;;;;;;;4934877;29;20525;-71
2023/10/23 12:36:00;;;;;;;16.27;6.00;;;;;;;;;;4940972;29;20442;-68
2023/10/23 12:38:28;;;;;;;15.32;6.25;;;;;;;;;;4934168;29;20114;-69
2023/10/23 12:40:54;;;;;;;13.40;5.85;;;;;;;;;;4934360;28;20027;-69
2023/10/23 12:43:19;;;;;;;15.50;5.65;;;;;;;;;;4951727;29;20050;-69
2023/10/23 12:45:46;;;;;;;11.85;4.95;;;;;;;;;;4953284;28;20054;-69
2023/10/23 12:48:12;;;;;;;10.77;5.30;;;;;;;;;;4938511;28;20059;-69
2023/10/23 12:50:38;;;;;;;11.63;5.22;;;;;;;;;;4933998;29;20031;-69
2023/10/23 12:53:04;;;;;;;10.15;4.90;;;;;;;;;;4931441;29;20035;-69
2023/10/23 12:55:30;;;;;;;14.30;5.88;;;;;;;;;;4934552;29;20050;-69
2023/10/23 12:57:56;;;;;;;27.77;6.80;;;;;;;;;;4933476;29;20047;-70
2023/10/23 13:00:22;;;;;;;12.82;4.57;;;;;;;;;;4933670;29;20481;-69
2023/10/23 13:02:47;;;;;;;12.60;5.90;;;;;;;;;;4933686;28;20035;-70
2023/10/23 13:05:13;;;;;;;12.90;4.65;;;;;;;;;;4933472;29;20055;-68
2023/10/23 13:07:40;;;;;;;17.05;5.00;;;;;;;;;;4934779;29;20393;-71
2023/10/23 13:10:06;;;;;;;19.20;5.60;;;;;;;;;;4932348;29;20389;-71
2023/10/23 13:12:32;;;;;;;14.00;5.60;;;;;;;;;;4932937;29;20409;-71
2023/10/23 13:14:57;;;;;;;14.15;4.90;;;;;;;;;;4933905;29;20028;-70
2023/10/23 13:17:23;;;;;;;15.77;5.75;;;;;;;;;;4933502;29;20110;-70
2023/10/23 13:19:49;;;;;;;11.52;5.30;;;;;;;;;;4937509;29;20023;-69
2023/10/23 13:22:15;;;;;;;14.93;4.80;;;;;;;;;;4941343;28;20035;-70
2023/10/23 13:24:41;;;;;;;13.35;4.95;;;;;;;;;;4934348;28;20441;-68
2023/10/23 13:27:07;;;;;;;8.90;4.45;;;;;;;;;;4933434;29;20054;-68
2023/10/23 13:29:33;;;;;;;14.15;5.47;;;;;;;;;;4942935;29;20533;-71
2023/10/23 13:32:03;;;;;;;14.82;4.88;;;;;;;;;;4931489;29;20038;-70
2023/10/23 13:34:28;;;;;;;13.07;5.38;;;;;;;;;;4932904;28;20041;-68
2023/10/23 13:36:54;;;;;;;12.80;4.85;;;;;;;;;;4932421;29;20493;-67
2023/10/23 13:39:20;;;;;;;17.38;5.65;;;;;;;;;;4932406;28;20034;-68
2023/10/23 13:41:46;;;;;;;11.43;5.07;;;;;;;;;;4933081;29;20063;-69
2023/10/23 13:44:12;;;;;;;14.18;6.00;;;;;;;;;;4933337;29;20053;-68
2023/10/23 13:46:38;;;;;;;19.00;6.28;;;;;;;;;;4933314;29;20095;-68
2023/10/23 13:49:03;;;;;;;12.07;5.07;;;;;;;;;;4933742;29;20023;-72
2023/10/23 13:51:29;;;;;;;15.32;5.25;;;;;;;;;;4933160;29;20050;-70
2023/10/23 13:59:10;;;;;;;15.05;5.00;;;;;;;;;;4950659;28;20082;-76
2023/10/23 14:01:36;;;;;;;15.73;5.57;;;;;;;;;;4955288;28;20086;-75
2023/10/23 14:04:03;;;;;;;15.32;4.90;;;;;;;;;;4964357;28;20396;-80
2023/10/23 14:06:28;;;;;;;17.67;5.07;;;;;;;;;;4963018;28;20119;-75
2023/10/23 14:08:55;;;;;;;14.98;4.88;;;;;;;;;;4975631;28;20050;-73
2023/10/23 14:11:23;;;;;;;15.60;5.03;;;;;;;;;;4969114;28;20035;-76
2023/10/23 14:13:49;;;;;;;17.58;5.68;;;;;;;;;;4968339;28;20034;-77
2023/10/23 14:16:14;;;;;;;20.42;7.03;;;;;;;;;;4963900;28;20122;-73
2023/10/23 14:18:40;;;;;;;17.20;8.27;;;;;;;;;;4955327;28;20093;-72
2023/10/23 14:21:06;;;;;;;15.35;6.57;;;;;;;;;;4962255;28;20495;-73
2023/10/23 14:23:32;;;;;;;14.25;6.65;;;;;;;;;;4967515;28;20079;-75